sensor_id;sensor_type;location;lat;lon;timestamp;temperature;humidity
23301;DHT22;11819;51.394;12.340;2023-04-10T00:00:40;8.80;80.80
23301;DHT22;11819;51.394;12.340;2023-04-10T00:03:07;8.80;81.20
23301;DHT22;11819;51.394;12.340;2023-04-10T00:05:33;8.80;81.60
23301;DHT22;11819;51.394;12.340;2023-04-10T00:07:59;8.80;81.70
23301;DHT22;11819;51.394;12.340;2023-04-10T00:10:25;8.80;82.50
23301;DHT22;11819;51.394;12.340;2023-04-10T00:12:54;8.80;81.40
23301;DHT22;11819;51.394;12.340;2023-04-10T00:15:20;8.70;81.30
23301;DHT22;11819;51.394;12.340;2023-04-10T00:17:46;8.70;81.40
23301;DHT22;11819;51.394;12.340;2023-04-10T00:20:12;8.70;81.50
23301;DHT22;11819;51.394;12.340;2023-04-10T00:22:37;8.60;81.40
23301;DHT22;11819;51.394;12.340;2023-04-10T00:25:03;8.60;81.50
23301;DHT22;11819;51.394;12.340;2023-04-10T00:27:30;8.60;81.40
23301;DHT22;11819;51.394;12.340;2023-04-10T00:29:56;8.60;81.50
23301;DHT22;11819;51.394;12.340;2023-04-10T00:32:21;8.50;81.60
23301;DHT22;11819;51.394;12.340;2023-04-10T00:34:47;8.50;81.90
23301;DHT22;11819;51.394;12.340;2023-04-10T00:37:13;8.50;82.10
23301;DHT22;11819;51.394;12.340;2023-04-10T00:39:38;8.50;82.30
23301;DHT22;11819;51.394;12.340;2023-04-10T00:42:04;8.50;82.10
23301;DHT22;11819;51.394;12.340;2023-04-10T00:44:33;8.40;82.20
23301;DHT22;11819;51.394;12.340;2023-04-10T00:47:05;8.40;82.10
23301;DHT22;11819;51.394;12.340;2023-04-10T00:49:30;8.30;82.10
23301;DHT22;11819;51.394;12.340;2023-04-10T00:51:56;8.30;82.10
23301;DHT22;11819;51.394;12.340;2023-04-10T00:54:22;8.20;82.20
23301;DHT22;11819;51.394;12.340;2023-04-10T00:56:48;8.20;82.30
23301;DHT22;11819;51.394;12.340;2023-04-10T00:59:14;8.20;82.40
23301;DHT22;11819;51.394;12.340;2023-04-10T01:01:42;8.20;82.30
23301;DHT22;11819;51.394;12.340;2023-04-10T01:04:08;8.10;82.30
23301;DHT22;11819;51.394;12.340;2023-04-10T01:09:43;8.00;82.40
23301;DHT22;11819;51.394;12.340;2023-04-10T01:18:06;7.80;82.70
23301;DHT22;11819;51.394;12.340;2023-04-10T01:20:37;7.80;82.90
23301;DHT22;11819;51.394;12.340;2023-04-10T01:26:03;7.70;82.80
23301;DHT22;11819;51.394;12.340;2023-04-10T01:31:44;7.60;82.80
23301;DHT22;11819;51.394;12.340;2023-04-10T01:34:18;7.60;82.90
23301;DHT22;11819;51.394;12.340;2023-04-10T01:36:50;7.60;83.10
23301;DHT22;11819;51.394;12.340;2023-04-10T01:39:19;7.60;83.30
23301;DHT22;11819;51.394;12.340;2023-04-10T01:41:48;7.60;83.40
23301;DHT22;11819;51.394;12.340;2023-04-10T01:44:17;7.60;83.70
23301;DHT22;11819;51.394;12.340;2023-04-10T01:46:47;7.50;83.90
23301;DHT22;11819;51.394;12.340;2023-04-10T01:49:13;7.50;83.90
23301;DHT22;11819;51.394;12.340;2023-04-10T01:51:40;7.50;83.70
23301;DHT22;11819;51.394;12.340;2023-04-10T01:54:10;7.50;83.60
23301;DHT22;11819;51.394;12.340;2023-04-10T01:56:36;7.40;83.60
23301;DHT22;11819;51.394;12.340;2023-04-10T01:59:02;7.50;83.60
23301;DHT22;11819;51.394;12.340;2023-04-10T02:01:28;7.50;83.60
23301;DHT22;11819;51.394;12.340;2023-04-10T02:03:54;7.50;83.60
23301;DHT22;11819;51.394;12.340;2023-04-10T02:09:16;7.40;84.50
23301;DHT22;11819;51.394;12.340;2023-04-10T02:11:57;7.50;83.80
23301;DHT22;11819;51.394;12.340;2023-04-10T02:14:25;7.40;83.70
23301;DHT22;11819;51.394;12.340;2023-04-10T02:16:54;7.40;83.50
23301;DHT22;11819;51.394;12.340;2023-04-10T02:19:22;7.40;83.60
23301;DHT22;11819;51.394;12.340;2023-04-10T02:21:49;7.40;83.60
23301;DHT22;11819;51.394;12.340;2023-04-10T02:24:14;7.40;83.60
23301;DHT22;11819;51.394;12.340;2023-04-10T02:26:45;7.30;83.40
23301;DHT22;11819;51.394;12.340;2023-04-10T02:29:11;7.30;83.50
23301;DHT22;11819;51.394;12.340;2023-04-10T02:31:36;7.20;83.30
23301;DHT22;11819;51.394;12.340;2023-04-10T02:34:02;7.20;83.30
23301;DHT22;11819;51.394;12.340;2023-04-10T02:36:28;7.10;83.50
23301;DHT22;11819;51.394;12.340;2023-04-10T02:38:54;7.10;83.70
23301;DHT22;11819;51.394;12.340;2023-04-10T02:41:22;7.10;83.90
23301;DHT22;11819;51.394;12.340;2023-04-10T02:43:49;7.10;84.30
23301;DHT22;11819;51.394;12.340;2023-04-10T02:46:16;7.10;84.60
23301;DHT22;11819;51.394;12.340;2023-04-10T02:48:42;7.10;84.70
23301;DHT22;11819;51.394;12.340;2023-04-10T02:51:07;7.10;84.50
23301;DHT22;11819;51.394;12.340;2023-04-10T02:53:33;7.10;84.40
23301;DHT22;11819;51.394;12.340;2023-04-10T02:56:00;7.00;84.30
23301;DHT22;11819;51.394;12.340;2023-04-10T02:58:27;7.00;84.30
23301;DHT22;11819;51.394;12.340;2023-04-10T03:00:55;6.90;84.30
23301;DHT22;11819;51.394;12.340;2023-04-10T03:03:33;6.90;84.50
23301;DHT22;11819;51.394;12.340;2023-04-10T03:05:59;6.90;84.80
23301;DHT22;11819;51.394;12.340;2023-04-10T03:08:29;7.00;84.90
23301;DHT22;11819;51.394;12.340;2023-04-10T03:10:55;7.00;84.80
23301;DHT22;11819;51.394;12.340;2023-04-10T03:13:21;7.00;84.90
23301;DHT22;11819;51.394;12.340;2023-04-10T03:15:48;7.00;84.50
23301;DHT22;11819;51.394;12.340;2023-04-10T03:18:13;7.00;84.30
23301;DHT22;11819;51.394;12.340;2023-04-10T03:20:41;7.00;84.30
23301;DHT22;11819;51.394;12.340;2023-04-10T03:23:07;6.90;84.40
23301;DHT22;11819;51.394;12.340;2023-04-10T03:25:33;6.90;84.50
23301;DHT22;11819;51.394;12.340;2023-04-10T03:27:59;6.80;84.40
23301;DHT22;11819;51.394;12.340;2023-04-10T03:30:25;6.80;84.80
23301;DHT22;11819;51.394;12.340;2023-04-10T03:32:51;6.70;85.00
23301;DHT22;11819;51.394;12.340;2023-04-10T03:35:17;6.70;85.20
23301;DHT22;11819;51.394;12.340;2023-04-10T03:37:42;6.70;85.30
23301;DHT22;11819;51.394;12.340;2023-04-10T03:40:09;6.60;85.50
23301;DHT22;11819;51.394;12.340;2023-04-10T03:42:35;6.60;85.60
23301;DHT22;11819;51.394;12.340;2023-04-10T03:45:02;6.60;85.40
23301;DHT22;11819;51.394;12.340;2023-04-10T03:47:33;6.60;85.40
23301;DHT22;11819;51.394;12.340;2023-04-10T03:50:01;6.60;85.40
23301;DHT22;11819;51.394;12.340;2023-04-10T03:52:34;6.50;85.20
23301;DHT22;11819;51.394;12.340;2023-04-10T03:55:00;6.50;85.30
23301;DHT22;11819;51.394;12.340;2023-04-10T03:57:27;6.40;85.40
23301;DHT22;11819;51.394;12.340;2023-04-10T03:59:59;6.40;85.50
23301;DHT22;11819;51.394;12.340;2023-04-10T04:02:29;6.40;85.60
23301;DHT22;11819;51.394;12.340;2023-04-10T04:04:54;6.40;85.70
23301;DHT22;11819;51.394;12.340;2023-04-10T04:07:42;6.30;85.60
23301;DHT22;11819;51.394;12.340;2023-04-10T04:10:19;6.40;85.80
23301;DHT22;11819;51.394;12.340;2023-04-10T04:12:56;6.40;85.90
23301;DHT22;11819;51.394;12.340;2023-04-10T04:15:33;6.40;86.10
23301;DHT22;11819;51.394;12.340;2023-04-10T04:18:34;6.40;86.20
23301;DHT22;11819;51.394;12.340;2023-04-10T04:21:20;6.50;86.20
23301;DHT22;11819;51.394;12.340;2023-04-10T04:24:18;6.50;85.90
23301;DHT22;11819;51.394;12.340;2023-04-10T04:26:58;6.50;85.80
23301;DHT22;11819;51.394;12.340;2023-04-10T04:29:34;6.50;85.60
23301;DHT22;11819;51.394;12.340;2023-04-10T04:32:16;6.50;85.60
23301;DHT22;11819;51.394;12.340;2023-04-10T04:35:14;6.50;85.80
23301;DHT22;11819;51.394;12.340;2023-04-10T04:38:18;6.40;85.80
23301;DHT22;11819;51.394;12.340;2023-04-10T04:41:19;6.40;85.90
23301;DHT22;11819;51.394;12.340;2023-04-10T04:44:09;6.40;86.00
23301;DHT22;11819;51.394;12.340;2023-04-10T04:46:53;6.50;86.30
23301;DHT22;11819;51.394;12.340;2023-04-10T04:49:57;6.50;86.30
23301;DHT22;11819;51.394;12.340;2023-04-10T04:52:43;6.50;86.30
23301;DHT22;11819;51.394;12.340;2023-04-10T04:55:25;6.50;86.40
23301;DHT22;11819;51.394;12.340;2023-04-10T04:58:06;6.50;86.40
23301;DHT22;11819;51.394;12.340;2023-04-10T05:01:10;6.50;86.40
23301;DHT22;11819;51.394;12.340;2023-04-10T05:04:05;6.60;86.20
23301;DHT22;11819;51.394;12.340;2023-04-10T05:06:54;6.50;86.00
23301;DHT22;11819;51.394;12.340;2023-04-10T05:09:37;6.50;86.10
23301;DHT22;11819;51.394;12.340;2023-04-10T05:12:14;6.50;86.30
23301;DHT22;11819;51.394;12.340;2023-04-10T05:14:48;6.50;86.60
23301;DHT22;11819;51.394;12.340;2023-04-10T05:17:46;6.50;86.70
23301;DHT22;11819;51.394;12.340;2023-04-10T05:20:36;6.50;86.70
23301;DHT22;11819;51.394;12.340;2023-04-10T05:23:02;6.50;86.80
23301;DHT22;11819;51.394;12.340;2023-04-10T05:25:46;6.60;87.10
23301;DHT22;11819;51.394;12.340;2023-04-10T05:28:34;6.60;87.20
23301;DHT22;11819;51.394;12.340;2023-04-10T05:31:20;6.60;88.30
23301;DHT22;11819;51.394;12.340;2023-04-10T05:34:08;6.60;87.70
23301;DHT22;11819;51.394;12.340;2023-04-10T05:36:45;6.60;87.80
23301;DHT22;11819;51.394;12.340;2023-04-10T05:39:18;6.70;87.90
23301;DHT22;11819;51.394;12.340;2023-04-10T05:41:55;6.80;87.90
23301;DHT22;11819;51.394;12.340;2023-04-10T05:44:22;6.80;88.00
23301;DHT22;11819;51.394;12.340;2023-04-10T05:47:02;6.90;88.00
23301;DHT22;11819;51.394;12.340;2023-04-10T05:49:51;7.00;88.10
23301;DHT22;11819;51.394;12.340;2023-04-10T05:52:29;7.10;88.30
23301;DHT22;11819;51.394;12.340;2023-04-10T05:55:21;7.20;88.50
23301;DHT22;11819;51.394;12.340;2023-04-10T05:57:54;7.20;88.70
23301;DHT22;11819;51.394;12.340;2023-04-10T06:00:49;7.30;89.00
23301;DHT22;11819;51.394;12.340;2023-04-10T06:03:45;7.40;89.20
23301;DHT22;11819;51.394;12.340;2023-04-10T06:06:12;7.50;89.10
23301;DHT22;11819;51.394;12.340;2023-04-10T06:08:39;7.60;88.80
23301;DHT22;11819;51.394;12.340;2023-04-10T06:11:05;7.70;88.50
23301;DHT22;11819;51.394;12.340;2023-04-10T06:13:31;7.80;88.20
23301;DHT22;11819;51.394;12.340;2023-04-10T06:15:58;7.80;88.20
23301;DHT22;11819;51.394;12.340;2023-04-10T06:18:24;7.90;88.10
23301;DHT22;11819;51.394;12.340;2023-04-10T06:20:50;8.00;88.10
23301;DHT22;11819;51.394;12.340;2023-04-10T06:23:15;8.00;88.00
23301;DHT22;11819;51.394;12.340;2023-04-10T06:25:42;8.10;87.90
23301;DHT22;11819;51.394;12.340;2023-04-10T06:28:08;8.20;87.70
23301;DHT22;11819;51.394;12.340;2023-04-10T06:30:33;8.20;87.70
23301;DHT22;11819;51.394;12.340;2023-04-10T06:33:02;8.30;87.60
23301;DHT22;11819;51.394;12.340;2023-04-10T06:35:31;8.30;87.60
23301;DHT22;11819;51.394;12.340;2023-04-10T06:37:57;8.40;87.60
23301;DHT22;11819;51.394;12.340;2023-04-10T06:40:23;8.50;87.40
23301;DHT22;11819;51.394;12.340;2023-04-10T06:42:48;8.50;87.10
23301;DHT22;11819;51.394;12.340;2023-04-10T06:45:26;8.60;87.10
23301;DHT22;11819;51.394;12.340;2023-04-10T06:47:52;8.70;87.00
23301;DHT22;11819;51.394;12.340;2023-04-10T06:50:18;8.90;86.70
23301;DHT22;11819;51.394;12.340;2023-04-10T06:52:44;8.90;86.40
23301;DHT22;11819;51.394;12.340;2023-04-10T06:55:10;9.00;86.10
23301;DHT22;11819;51.394;12.340;2023-04-10T06:57:37;9.10;86.60
23301;DHT22;11819;51.394;12.340;2023-04-10T07:00:04;9.20;85.60
23301;DHT22;11819;51.394;12.340;2023-04-10T07:02:30;9.20;85.30
23301;DHT22;11819;51.394;12.340;2023-04-10T07:04:55;9.30;85.20
23301;DHT22;11819;51.394;12.340;2023-04-10T07:07:21;9.40;85.20
23301;DHT22;11819;51.394;12.340;2023-04-10T07:09:47;9.40;85.10
23301;DHT22;11819;51.394;12.340;2023-04-10T07:12:13;9.50;84.90
23301;DHT22;11819;51.394;12.340;2023-04-10T07:14:38;9.60;84.80
23301;DHT22;11819;51.394;12.340;2023-04-10T07:17:04;9.70;84.50
23301;DHT22;11819;51.394;12.340;2023-04-10T07:19:30;9.70;84.10
23301;DHT22;11819;51.394;12.340;2023-04-10T07:21:55;9.70;83.80
23301;DHT22;11819;51.394;12.340;2023-04-10T07:24:22;9.70;83.40
23301;DHT22;11819;51.394;12.340;2023-04-10T07:26:47;9.70;83.10
23301;DHT22;11819;51.394;12.340;2023-04-10T07:29:13;9.70;83.20
23301;DHT22;11819;51.394;12.340;2023-04-10T07:31:39;9.70;83.40
23301;DHT22;11819;51.394;12.340;2023-04-10T07:34:05;9.80;83.60
23301;DHT22;11819;51.394;12.340;2023-04-10T07:36:30;9.90;83.60
23301;DHT22;11819;51.394;12.340;2023-04-10T07:38:57;10.00;83.50
23301;DHT22;11819;51.394;12.340;2023-04-10T07:41:22;10.10;82.90
23301;DHT22;11819;51.394;12.340;2023-04-10T07:43:48;10.10;82.50
23301;DHT22;11819;51.394;12.340;2023-04-10T07:46:16;10.10;82.50
23301;DHT22;11819;51.394;12.340;2023-04-10T07:48:41;10.10;82.30
23301;DHT22;11819;51.394;12.340;2023-04-10T07:51:07;10.20;82.20
23301;DHT22;11819;51.394;12.340;2023-04-10T07:53:35;10.30;82.20
23301;DHT22;11819;51.394;12.340;2023-04-10T07:56:01;10.30;82.10
23301;DHT22;11819;51.394;12.340;2023-04-10T07:58:27;10.30;81.80
23301;DHT22;11819;51.394;12.340;2023-04-10T08:00:52;10.30;81.50
23301;DHT22;11819;51.394;12.340;2023-04-10T08:03:18;10.40;81.50
23301;DHT22;11819;51.394;12.340;2023-04-10T08:05:43;10.40;81.40
23301;DHT22;11819;51.394;12.340;2023-04-10T08:08:09;10.50;81.10
23301;DHT22;11819;51.394;12.340;2023-04-10T08:10:36;10.60;80.90
23301;DHT22;11819;51.394;12.340;2023-04-10T08:13:04;10.60;80.40
23301;DHT22;11819;51.394;12.340;2023-04-10T08:15:30;10.70;80.30
23301;DHT22;11819;51.394;12.340;2023-04-10T08:17:56;10.80;79.80
23301;DHT22;11819;51.394;12.340;2023-04-10T08:20:21;10.80;79.60
23301;DHT22;11819;51.394;12.340;2023-04-10T08:22:47;10.90;79.40
23301;DHT22;11819;51.394;12.340;2023-04-10T08:25:13;10.90;79.40
23301;DHT22;11819;51.394;12.340;2023-04-10T08:27:39;11.00;79.30
23301;DHT22;11819;51.394;12.340;2023-04-10T08:30:05;11.10;79.20
23301;DHT22;11819;51.394;12.340;2023-04-10T08:32:31;11.10;78.90
23301;DHT22;11819;51.394;12.340;2023-04-10T08:34:56;11.20;78.80
23301;DHT22;11819;51.394;12.340;2023-04-10T08:37:22;11.30;78.40
23301;DHT22;11819;51.394;12.340;2023-04-10T08:39:47;11.30;77.80
23301;DHT22;11819;51.394;12.340;2023-04-10T08:42:13;11.40;77.00
23301;DHT22;11819;51.394;12.340;2023-04-10T08:44:38;11.40;76.50
23301;DHT22;11819;51.394;12.340;2023-04-10T08:47:07;11.50;76.50
23301;DHT22;11819;51.394;12.340;2023-04-10T08:49:40;11.60;76.30
23301;DHT22;11819;51.394;12.340;2023-04-10T08:52:07;11.60;75.90
23301;DHT22;11819;51.394;12.340;2023-04-10T08:54:37;11.60;75.30
23301;DHT22;11819;51.394;12.340;2023-04-10T08:57:05;11.70;74.90
23301;DHT22;11819;51.394;12.340;2023-04-10T08:59:31;11.80;74.40
23301;DHT22;11819;51.394;12.340;2023-04-10T09:01:58;11.90;74.10
23301;DHT22;11819;51.394;12.340;2023-04-10T09:04:24;11.90;73.30
23301;DHT22;11819;51.394;12.340;2023-04-10T09:06:51;12.00;73.10
23301;DHT22;11819;51.394;12.340;2023-04-10T09:09:17;12.10;72.50
23301;DHT22;11819;51.394;12.340;2023-04-10T09:14:20;12.20;71.20
23301;DHT22;11819;51.394;12.340;2023-04-10T09:16:46;12.30;71.30
23301;DHT22;11819;51.394;12.340;2023-04-10T09:19:12;12.30;71.40
23301;DHT22;11819;51.394;12.340;2023-04-10T09:21:38;12.40;71.50
23301;DHT22;11819;51.394;12.340;2023-04-10T09:24:04;12.40;71.00
23301;DHT22;11819;51.394;12.340;2023-04-10T09:26:33;12.50;70.30
23301;DHT22;11819;51.394;12.340;2023-04-10T09:29:06;12.60;70.40
23301;DHT22;11819;51.394;12.340;2023-04-10T09:31:34;12.60;70.60
23301;DHT22;11819;51.394;12.340;2023-04-10T09:34:19;12.70;70.30
23301;DHT22;11819;51.394;12.340;2023-04-10T09:36:56;12.70;70.10
23301;DHT22;11819;51.394;12.340;2023-04-10T09:39:33;12.80;70.00
23301;DHT22;11819;51.394;12.340;2023-04-10T09:41:58;12.90;69.90
23301;DHT22;11819;51.394;12.340;2023-04-10T09:44:33;12.90;69.40
23301;DHT22;11819;51.394;12.340;2023-04-10T09:47:20;13.00;68.90
23301;DHT22;11819;51.394;12.340;2023-04-10T09:49:57;13.00;68.70
23301;DHT22;11819;51.394;12.340;2023-04-10T09:52:31;13.10;68.80
23301;DHT22;11819;51.394;12.340;2023-04-10T09:54:59;13.10;68.50
23301;DHT22;11819;51.394;12.340;2023-04-10T09:57:28;13.20;68.10
23301;DHT22;11819;51.394;12.340;2023-04-10T10:00:01;13.20;68.10
23301;DHT22;11819;51.394;12.340;2023-04-10T10:02:35;13.30;67.50
23301;DHT22;11819;51.394;12.340;2023-04-10T10:05:03;13.30;67.10
23301;DHT22;11819;51.394;12.340;2023-04-10T10:07:30;13.30;67.50
23301;DHT22;11819;51.394;12.340;2023-04-10T10:09:57;13.30;67.40
23301;DHT22;11819;51.394;12.340;2023-04-10T10:12:23;13.30;67.20
23301;DHT22;11819;51.394;12.340;2023-04-10T10:15:13;13.40;67.30
23301;DHT22;11819;51.394;12.340;2023-04-10T10:20:43;13.40;67.40
23301;DHT22;11819;51.394;12.340;2023-04-10T10:23:09;13.50;67.50
23301;DHT22;11819;51.394;12.340;2023-04-10T10:25:35;13.50;67.00
23301;DHT22;11819;51.394;12.340;2023-04-10T10:28:03;13.50;67.10
23301;DHT22;11819;51.394;12.340;2023-04-10T10:30:33;13.50;66.70
23301;DHT22;11819;51.394;12.340;2023-04-10T10:33:01;13.60;66.60
23301;DHT22;11819;51.394;12.340;2023-04-10T10:35:30;13.60;66.20
23301;DHT22;11819;51.394;12.340;2023-04-10T10:37:59;13.70;65.20
23301;DHT22;11819;51.394;12.340;2023-04-10T10:46:09;13.80;65.50
23301;DHT22;11819;51.394;12.340;2023-04-10T10:48:37;13.80;65.60
23301;DHT22;11819;51.394;12.340;2023-04-10T10:51:02;13.90;64.00
23301;DHT22;11819;51.394;12.340;2023-04-10T10:53:44;13.90;64.00
23301;DHT22;11819;51.394;12.340;2023-04-10T10:58:48;14.00;64.30
23301;DHT22;11819;51.394;12.340;2023-04-10T11:01:15;14.00;64.40
23301;DHT22;11819;51.394;12.340;2023-04-10T11:03:41;14.00;64.70
23301;DHT22;11819;51.394;12.340;2023-04-10T11:06:10;14.10;64.20
23301;DHT22;11819;51.394;12.340;2023-04-10T11:08:38;14.10;64.30
23301;DHT22;11819;51.394;12.340;2023-04-10T11:11:05;14.20;64.50
23301;DHT22;11819;51.394;12.340;2023-04-10T11:13:36;14.20;64.60
23301;DHT22;11819;51.394;12.340;2023-04-10T11:16:03;14.30;64.80
23301;DHT22;11819;51.394;12.340;2023-04-10T11:29:04;14.50;63.00
23301;DHT22;11819;51.394;12.340;2023-04-10T11:31:31;14.60;63.20
23301;DHT22;11819;51.394;12.340;2023-04-10T11:36:26;14.70;64.40
23301;DHT22;11819;51.394;12.340;2023-04-10T11:38:59;14.80;63.40
23301;DHT22;11819;51.394;12.340;2023-04-10T11:41:31;14.90;63.50
23301;DHT22;11819;51.394;12.340;2023-04-10T11:43:59;15.00;63.60
23301;DHT22;11819;51.394;12.340;2023-04-10T11:46:25;15.10;62.60
23301;DHT22;11819;51.394;12.340;2023-04-10T11:49:01;15.20;62.50
23301;DHT22;11819;51.394;12.340;2023-04-10T11:51:27;15.40;62.70
23301;DHT22;11819;51.394;12.340;2023-04-10T11:54:07;15.50;62.00
23301;DHT22;11819;51.394;12.340;2023-04-10T11:56:34;15.50;61.40
23301;DHT22;11819;51.394;12.340;2023-04-10T11:59:00;15.60;60.40
23301;DHT22;11819;51.394;12.340;2023-04-10T12:01:31;15.50;59.80
23301;DHT22;11819;51.394;12.340;2023-04-10T12:03:57;15.60;59.60
23301;DHT22;11819;51.394;12.340;2023-04-10T12:06:23;15.70;59.60
23301;DHT22;11819;51.394;12.340;2023-04-10T12:08:49;15.90;58.20
23301;DHT22;11819;51.394;12.340;2023-04-10T12:13:46;16.00;58.60
23301;DHT22;11819;51.394;12.340;2023-04-10T12:16:12;16.10;59.20
23301;DHT22;11819;51.394;12.340;2023-04-10T12:18:38;16.30;59.20
23301;DHT22;11819;51.394;12.340;2023-04-10T12:21:05;16.40;57.80
23301;DHT22;11819;51.394;12.340;2023-04-10T12:23:31;16.60;57.40
23301;DHT22;11819;51.394;12.340;2023-04-10T12:26:13;16.70;57.40
23301;DHT22;11819;51.394;12.340;2023-04-10T12:28:41;16.70;56.90
23301;DHT22;11819;51.394;12.340;2023-04-10T12:31:07;16.90;56.90
23301;DHT22;11819;51.394;12.340;2023-04-10T12:33:33;17.10;56.10
23301;DHT22;11819;51.394;12.340;2023-04-10T12:35:59;17.20;55.70
23301;DHT22;11819;51.394;12.340;2023-04-10T12:38:41;17.30;55.80
23301;DHT22;11819;51.394;12.340;2023-04-10T12:41:08;17.50;55.90
23301;DHT22;11819;51.394;12.340;2023-04-10T12:43:42;17.70;55.50
23301;DHT22;11819;51.394;12.340;2023-04-10T12:46:20;17.80;54.70
23301;DHT22;11819;51.394;12.340;2023-04-10T12:48:46;17.80;54.20
23301;DHT22;11819;51.394;12.340;2023-04-10T12:51:12;17.70;54.20
23301;DHT22;11819;51.394;12.340;2023-04-10T12:53:44;17.70;54.90
23301;DHT22;11819;51.394;12.340;2023-04-10T12:56:11;17.90;54.30
23301;DHT22;11819;51.394;12.340;2023-04-10T12:58:38;18.00;53.30
23301;DHT22;11819;51.394;12.340;2023-04-10T13:01:06;17.90;52.80
23301;DHT22;11819;51.394;12.340;2023-04-10T13:03:33;17.90;53.50
23301;DHT22;11819;51.394;12.340;2023-04-10T13:06:01;17.90;53.50
23301;DHT22;11819;51.394;12.340;2023-04-10T13:08:26;18.00;53.50
23301;DHT22;11819;51.394;12.340;2023-04-10T13:10:52;18.40;52.80
23301;DHT22;11819;51.394;12.340;2023-04-10T13:13:19;18.70;52.30
23301;DHT22;11819;51.394;12.340;2023-04-10T13:15:45;19.00;51.60
23301;DHT22;11819;51.394;12.340;2023-04-10T13:18:10;19.30;51.80
23301;DHT22;11819;51.394;12.340;2023-04-10T13:20:38;19.60;50.80
23301;DHT22;11819;51.394;12.340;2023-04-10T13:23:04;19.90;50.70
23301;DHT22;11819;51.394;12.340;2023-04-10T13:25:31;20.00;50.40
23301;DHT22;11819;51.394;12.340;2023-04-10T13:27:58;20.30;50.60
23301;DHT22;11819;51.394;12.340;2023-04-10T13:30:25;20.70;49.30
23301;DHT22;11819;51.394;12.340;2023-04-10T13:32:51;21.00;47.60
23301;DHT22;11819;51.394;12.340;2023-04-10T13:35:16;21.10;46.90
23301;DHT22;11819;51.394;12.340;2023-04-10T13:37:42;21.20;46.90
23301;DHT22;11819;51.394;12.340;2023-04-10T13:40:08;21.50;47.10
23301;DHT22;11819;51.394;12.340;2023-04-10T13:42:34;21.80;47.00
23301;DHT22;11819;51.394;12.340;2023-04-10T13:45:00;21.90;45.70
23301;DHT22;11819;51.394;12.340;2023-04-10T13:47:25;22.20;45.60
23301;DHT22;11819;51.394;12.340;2023-04-10T13:49:52;22.30;45.40
23301;DHT22;11819;51.394;12.340;2023-04-10T13:52:17;22.50;44.40
23301;DHT22;11819;51.394;12.340;2023-04-10T13:54:43;22.60;44.40
23301;DHT22;11819;51.394;12.340;2023-04-10T13:57:08;22.70;43.20
23301;DHT22;11819;51.394;12.340;2023-04-10T13:59:34;22.60;42.80
23301;DHT22;11819;51.394;12.340;2023-04-10T14:01:59;22.60;43.80
23301;DHT22;11819;51.394;12.340;2023-04-10T14:04:26;22.80;43.30
23301;DHT22;11819;51.394;12.340;2023-04-10T14:06:51;22.90;42.40
23301;DHT22;11819;51.394;12.340;2023-04-10T14:09:22;22.70;42.20
23301;DHT22;11819;51.394;12.340;2023-04-10T14:11:47;22.20;42.20
23301;DHT22;11819;51.394;12.340;2023-04-10T14:14:13;21.90;43.00
23301;DHT22;11819;51.394;12.340;2023-04-10T14:16:39;21.60;42.90
23301;DHT22;11819;51.394;12.340;2023-04-10T14:19:04;21.40;43.40
23301;DHT22;11819;51.394;12.340;2023-04-10T14:21:30;21.70;43.70
23301;DHT22;11819;51.394;12.340;2023-04-10T14:23:56;22.20;43.50
23301;DHT22;11819;51.394;12.340;2023-04-10T14:26:21;22.80;42.10
23301;DHT22;11819;51.394;12.340;2023-04-10T14:28:47;23.30;40.30
23301;DHT22;11819;51.394;12.340;2023-04-10T14:31:13;23.60;40.00
23301;DHT22;11819;51.394;12.340;2023-04-10T14:33:38;23.90;39.60
23301;DHT22;11819;51.394;12.340;2023-04-10T14:36:05;24.10;39.20
23301;DHT22;11819;51.394;12.340;2023-04-10T14:38:31;24.20;39.60
23301;DHT22;11819;51.394;12.340;2023-04-10T14:40:56;24.40;38.90
23301;DHT22;11819;51.394;12.340;2023-04-10T14:43:22;24.40;36.20
23301;DHT22;11819;51.394;12.340;2023-04-10T14:45:47;24.10;36.80
23301;DHT22;11819;51.394;12.340;2023-04-10T14:48:13;24.30;37.80
23301;DHT22;11819;51.394;12.340;2023-04-10T14:50:39;24.70;37.40
23301;DHT22;11819;51.394;12.340;2023-04-10T14:53:05;24.90;36.30
23301;DHT22;11819;51.394;12.340;2023-04-10T14:55:33;24.90;36.00
23301;DHT22;11819;51.394;12.340;2023-04-10T14:58:00;25.00;36.40
23301;DHT22;11819;51.394;12.340;2023-04-10T15:00:25;25.10;36.20
23301;DHT22;11819;51.394;12.340;2023-04-10T15:02:54;24.90;35.60
23301;DHT22;11819;51.394;12.340;2023-04-10T15:05:23;24.80;35.90
23301;DHT22;11819;51.394;12.340;2023-04-10T15:07:48;24.80;35.90
23301;DHT22;11819;51.394;12.340;2023-04-10T15:10:14;24.80;35.70
23301;DHT22;11819;51.394;12.340;2023-04-10T15:12:40;24.80;35.30
23301;DHT22;11819;51.394;12.340;2023-04-10T15:15:07;24.70;34.10
23301;DHT22;11819;51.394;12.340;2023-04-10T15:17:34;24.30;35.00
23301;DHT22;11819;51.394;12.340;2023-04-10T15:20:00;24.30;35.80
23301;DHT22;11819;51.394;12.340;2023-04-10T15:22:26;24.30;36.00
23301;DHT22;11819;51.394;12.340;2023-04-10T15:24:51;24.20;36.30
23301;DHT22;11819;51.394;12.340;2023-04-10T15:27:20;24.10;36.10
23301;DHT22;11819;51.394;12.340;2023-04-10T15:29:47;24.10;36.40
23301;DHT22;11819;51.394;12.340;2023-04-10T15:32:13;23.90;36.00
23301;DHT22;11819;51.394;12.340;2023-04-10T15:34:38;23.80;35.60
23301;DHT22;11819;51.394;12.340;2023-04-10T15:37:04;23.80;35.90
23301;DHT22;11819;51.394;12.340;2023-04-10T15:39:29;23.90;36.70
23301;DHT22;11819;51.394;12.340;2023-04-10T15:41:56;24.20;35.80
23301;DHT22;11819;51.394;12.340;2023-04-10T15:44:22;24.30;36.10
23301;DHT22;11819;51.394;12.340;2023-04-10T15:46:48;24.50;36.60
23301;DHT22;11819;51.394;12.340;2023-04-10T15:49:14;24.70;34.80
23301;DHT22;11819;51.394;12.340;2023-04-10T15:51:42;24.50;34.20
23301;DHT22;11819;51.394;12.340;2023-04-10T15:54:08;24.20;35.40
23301;DHT22;11819;51.394;12.340;2023-04-10T15:56:35;24.10;35.30
23301;DHT22;11819;51.394;12.340;2023-04-10T15:59:04;23.90;35.90
23301;DHT22;11819;51.394;12.340;2023-04-10T16:01:29;23.60;36.60
23301;DHT22;11819;51.394;12.340;2023-04-10T16:03:55;23.20;36.10
23301;DHT22;11819;51.394;12.340;2023-04-10T16:06:20;22.50;36.90
23301;DHT22;11819;51.394;12.340;2023-04-10T16:08:51;21.80;37.90
23301;DHT22;11819;51.394;12.340;2023-04-10T16:11:17;21.20;39.10
23301;DHT22;11819;51.394;12.340;2023-04-10T16:13:42;20.60;40.40
23301;DHT22;11819;51.394;12.340;2023-04-10T16:16:13;20.10;41.10
23301;DHT22;11819;51.394;12.340;2023-04-10T16:18:39;19.70;41.80
23301;DHT22;11819;51.394;12.340;2023-04-10T16:21:07;19.40;42.70
23301;DHT22;11819;51.394;12.340;2023-04-10T16:23:33;19.30;43.30